Aviation Digital Data Service (ADDS)

Output produced by METARs form (0548 UTC 09 February 2016)
found at http://www.aviationweather.gov/adds/metars/
 
KDFW 090528Z 0906/1012 32011KT P6SM SKC 
     FM091600 32014G24KT P6SM FEW100 
     FM100100 35008KT P6SM SKC